sensor_id;sensor_type;location;lat;lon;timestamp;temperature;humidity
34406;DHT22;20658;45.630;8.886;2023-06-14T00:00:48;19.20;99.90
34406;DHT22;20658;45.630;8.886;2023-06-14T00:03:25;19.10;99.90
34406;DHT22;20658;45.630;8.886;2023-06-14T00:05:58;19.10;99.90
34406;DHT22;20658;45.630;8.886;2023-06-14T00:08:32;19.10;99.90
34406;DHT22;20658;45.630;8.886;2023-06-14T00:11:07;19.10;99.90
34406;DHT22;20658;45.630;8.886;2023-06-14T00:13:40;19.10;99.90
34406;DHT22;20658;45.630;8.886;2023-06-14T00:16:15;19.00;99.90
34406;DHT22;20658;45.630;8.886;2023-06-14T00:18:48;18.90;99.90
34406;DHT22;20658;45.630;8.886;2023-06-14T00:21:23;18.80;99.90
34406;DHT22;20658;45.630;8.886;2023-06-14T00:23:57;18.70;99.90
34406;DHT22;20658;45.630;8.886;2023-06-14T00:26:33;18.60;99.90
34406;DHT22;20658;45.630;8.886;2023-06-14T00:29:06;18.40;99.90
34406;DHT22;20658;45.630;8.886;2023-06-14T00:31:39;18.30;99.90
34406;DHT22;20658;45.630;8.886;2023-06-14T00:34:13;18.20;99.90
34406;DHT22;20658;45.630;8.886;2023-06-14T00:36:46;18.20;99.90
34406;DHT22;20658;45.630;8.886;2023-06-14T00:39:20;18.10;99.90
34406;DHT22;20658;45.630;8.886;2023-06-14T00:41:56;18.10;99.90
34406;DHT22;20658;45.630;8.886;2023-06-14T00:44:31;18.10;99.90
34406;DHT22;20658;45.630;8.886;2023-06-14T00:47:04;18.10;99.90
34406;DHT22;20658;45.630;8.886;2023-06-14T00:49:38;18.00;99.90
34406;DHT22;20658;45.630;8.886;2023-06-14T00:52:12;17.90;99.90
34406;DHT22;20658;45.630;8.886;2023-06-14T00:54:46;17.90;99.90
34406;DHT22;20658;45.630;8.886;2023-06-14T00:57:21;17.90;99.90
34406;DHT22;20658;45.630;8.886;2023-06-14T00:59:56;17.90;99.90
34406;DHT22;20658;45.630;8.886;2023-06-14T01:02:29;17.90;99.90
34406;DHT22;20658;45.630;8.886;2023-06-14T01:05:03;17.90;99.90
34406;DHT22;20658;45.630;8.886;2023-06-14T01:08:02;18.00;99.90
34406;DHT22;20658;45.630;8.886;2023-06-14T01:10:48;18.00;99.90
34406;DHT22;20658;45.630;8.886;2023-06-14T01:13:29;17.90;99.90
34406;DHT22;20658;45.630;8.886;2023-06-14T01:16:07;17.90;99.90
34406;DHT22;20658;45.630;8.886;2023-06-14T01:18:41;17.80;99.90
34406;DHT22;20658;45.630;8.886;2023-06-14T01:21:23;17.80;99.90
34406;DHT22;20658;45.630;8.886;2023-06-14T01:23:58;17.70;99.90
34406;DHT22;20658;45.630;8.886;2023-06-14T01:26:31;17.70;99.90
34406;DHT22;20658;45.630;8.886;2023-06-14T01:29:05;17.70;99.90
34406;DHT22;20658;45.630;8.886;2023-06-14T01:31:39;17.60;99.90
34406;DHT22;20658;45.630;8.886;2023-06-14T01:34:14;17.60;99.90
34406;DHT22;20658;45.630;8.886;2023-06-14T01:36:52;17.60;99.90
34406;DHT22;20658;45.630;8.886;2023-06-14T01:39:28;17.40;99.90
34406;DHT22;20658;45.630;8.886;2023-06-14T01:42:02;17.40;99.90
34406;DHT22;20658;45.630;8.886;2023-06-14T01:44:38;17.40;99.90
34406;DHT22;20658;45.630;8.886;2023-06-14T01:47:12;17.40;99.90
34406;DHT22;20658;45.630;8.886;2023-06-14T01:49:48;17.30;99.90
34406;DHT22;20658;45.630;8.886;2023-06-14T01:52:21;17.30;99.90
34406;DHT22;20658;45.630;8.886;2023-06-14T01:54:57;17.30;99.90
34406;DHT22;20658;45.630;8.886;2023-06-14T01:57:33;17.30;99.90
34406;DHT22;20658;45.630;8.886;2023-06-14T02:00:08;17.30;99.90
34406;DHT22;20658;45.630;8.886;2023-06-14T02:02:47;17.30;99.90
34406;DHT22;20658;45.630;8.886;2023-06-14T02:05:22;17.30;99.90
34406;DHT22;20658;45.630;8.886;2023-06-14T02:07:55;17.30;99.90
34406;DHT22;20658;45.630;8.886;2023-06-14T02:10:25;17.20;99.90
34406;DHT22;20658;45.630;8.886;2023-06-14T02:12:59;17.30;99.90
34406;DHT22;20658;45.630;8.886;2023-06-14T02:15:32;17.20;99.90
34406;DHT22;20658;45.630;8.886;2023-06-14T02:18:07;17.20;99.90
34406;DHT22;20658;45.630;8.886;2023-06-14T02:20:40;17.20;99.90
34406;DHT22;20658;45.630;8.886;2023-06-14T02:23:14;17.20;99.90
34406;DHT22;20658;45.630;8.886;2023-06-14T02:25:48;17.10;99.90
34406;DHT22;20658;45.630;8.886;2023-06-14T02:28:22;17.20;99.90
34406;DHT22;20658;45.630;8.886;2023-06-14T02:30:56;17.20;99.90
34406;DHT22;20658;45.630;8.886;2023-06-14T02:33:29;17.30;99.90
34406;DHT22;20658;45.630;8.886;2023-06-14T02:36:03;17.20;99.90
34406;DHT22;20658;45.630;8.886;2023-06-14T02:38:37;17.20;99.90
34406;DHT22;20658;45.630;8.886;2023-06-14T02:41:12;17.10;99.90
34406;DHT22;20658;45.630;8.886;2023-06-14T02:43:46;17.10;99.90
34406;DHT22;20658;45.630;8.886;2023-06-14T02:46:19;17.10;99.90
34406;DHT22;20658;45.630;8.886;2023-06-14T02:48:52;17.00;99.90
34406;DHT22;20658;45.630;8.886;2023-06-14T02:51:26;17.00;99.90
34406;DHT22;20658;45.630;8.886;2023-06-14T02:53:59;17.10;99.90
34406;DHT22;20658;45.630;8.886;2023-06-14T02:56:35;17.00;99.90
34406;DHT22;20658;45.630;8.886;2023-06-14T02:59:08;17.00;99.90
34406;DHT22;20658;45.630;8.886;2023-06-14T03:01:42;16.90;99.90
34406;DHT22;20658;45.630;8.886;2023-06-14T03:04:15;16.90;99.90
34406;DHT22;20658;45.630;8.886;2023-06-14T03:06:49;16.90;99.90
34406;DHT22;20658;45.630;8.886;2023-06-14T03:09:23;16.80;99.90
34406;DHT22;20658;45.630;8.886;2023-06-14T03:11:53;16.80;99.90
34406;DHT22;20658;45.630;8.886;2023-06-14T03:14:28;16.90;99.90
34406;DHT22;20658;45.630;8.886;2023-06-14T03:17:03;16.90;99.90
34406;DHT22;20658;45.630;8.886;2023-06-14T03:19:39;16.90;99.90
34406;DHT22;20658;45.630;8.886;2023-06-14T03:22:15;16.80;99.90
34406;DHT22;20658;45.630;8.886;2023-06-14T03:24:49;17.00;99.90
34406;DHT22;20658;45.630;8.886;2023-06-14T03:27:25;16.90;99.90
34406;DHT22;20658;45.630;8.886;2023-06-14T03:30:01;16.90;99.90
34406;DHT22;20658;45.630;8.886;2023-06-14T03:32:35;16.90;99.90
34406;DHT22;20658;45.630;8.886;2023-06-14T03:35:09;16.90;99.90
34406;DHT22;20658;45.630;8.886;2023-06-14T03:37:48;16.90;99.90
34406;DHT22;20658;45.630;8.886;2023-06-14T03:40:24;16.90;99.90
34406;DHT22;20658;45.630;8.886;2023-06-14T03:43:05;16.90;99.90
34406;DHT22;20658;45.630;8.886;2023-06-14T03:45:38;16.90;99.90
34406;DHT22;20658;45.630;8.886;2023-06-14T03:48:14;16.90;99.90
34406;DHT22;20658;45.630;8.886;2023-06-14T03:50:48;16.90;99.90
34406;DHT22;20658;45.630;8.886;2023-06-14T03:53:22;16.80;99.90
34406;DHT22;20658;45.630;8.886;2023-06-14T03:55:56;16.90;99.90
34406;DHT22;20658;45.630;8.886;2023-06-14T03:58:40;16.90;99.90
34406;DHT22;20658;45.630;8.886;2023-06-14T04:01:14;16.80;99.90
34406;DHT22;20658;45.630;8.886;2023-06-14T04:03:47;16.80;99.90
34406;DHT22;20658;45.630;8.886;2023-06-14T04:06:20;16.80;99.90
34406;DHT22;20658;45.630;8.886;2023-06-14T04:08:56;16.80;99.90
34406;DHT22;20658;45.630;8.886;2023-06-14T04:11:33;16.80;99.90
34406;DHT22;20658;45.630;8.886;2023-06-14T04:14:07;16.80;99.90
34406;DHT22;20658;45.630;8.886;2023-06-14T04:16:41;16.80;99.90
34406;DHT22;20658;45.630;8.886;2023-06-14T04:19:16;16.90;99.90
34406;DHT22;20658;45.630;8.886;2023-06-14T04:21:50;16.90;99.90
34406;DHT22;20658;45.630;8.886;2023-06-14T04:24:24;16.90;99.90
34406;DHT22;20658;45.630;8.886;2023-06-14T04:27:04;16.90;99.90
34406;DHT22;20658;45.630;8.886;2023-06-14T04:29:40;16.90;99.90
34406;DHT22;20658;45.630;8.886;2023-06-14T04:32:15;17.00;99.90
34406;DHT22;20658;45.630;8.886;2023-06-14T04:34:44;17.00;99.90
34406;DHT22;20658;45.630;8.886;2023-06-14T04:37:19;17.00;99.90
34406;DHT22;20658;45.630;8.886;2023-06-14T04:39:54;17.10;99.90
34406;DHT22;20658;45.630;8.886;2023-06-14T04:42:30;17.20;99.90
34406;DHT22;20658;45.630;8.886;2023-06-14T04:45:09;17.20;99.90
34406;DHT22;20658;45.630;8.886;2023-06-14T04:47:43;17.20;99.90
34406;DHT22;20658;45.630;8.886;2023-06-14T04:50:19;17.30;99.90
34406;DHT22;20658;45.630;8.886;2023-06-14T04:52:53;17.40;99.90
34406;DHT22;20658;45.630;8.886;2023-06-14T04:55:28;17.40;99.90
34406;DHT22;20658;45.630;8.886;2023-06-14T04:58:02;17.40;99.90
34406;DHT22;20658;45.630;8.886;2023-06-14T05:00:38;17.40;99.90
34406;DHT22;20658;45.630;8.886;2023-06-14T05:03:11;17.50;99.90
34406;DHT22;20658;45.630;8.886;2023-06-14T05:05:46;17.50;99.90
34406;DHT22;20658;45.630;8.886;2023-06-14T05:08:14;17.60;99.90
34406;DHT22;20658;45.630;8.886;2023-06-14T05:10:48;17.60;99.90
34406;DHT22;20658;45.630;8.886;2023-06-14T05:13:21;17.70;99.90
34406;DHT22;20658;45.630;8.886;2023-06-14T05:15:57;17.70;99.90
34406;DHT22;20658;45.630;8.886;2023-06-14T05:18:30;17.80;99.90
34406;DHT22;20658;45.630;8.886;2023-06-14T05:21:06;17.90;99.90
34406;DHT22;20658;45.630;8.886;2023-06-14T05:23:40;18.00;99.90
34406;DHT22;20658;45.630;8.886;2023-06-14T05:26:14;18.10;99.90
34406;DHT22;20658;45.630;8.886;2023-06-14T05:28:47;18.10;99.90
34406;DHT22;20658;45.630;8.886;2023-06-14T05:31:23;18.20;99.90
34406;DHT22;20658;45.630;8.886;2023-06-14T05:33:52;18.20;99.90
34406;DHT22;20658;45.630;8.886;2023-06-14T05:36:26;18.30;99.90
34406;DHT22;20658;45.630;8.886;2023-06-14T05:39:00;18.30;99.90
34406;DHT22;20658;45.630;8.886;2023-06-14T05:41:34;18.40;99.90
34406;DHT22;20658;45.630;8.886;2023-06-14T05:44:09;18.60;99.90
34406;DHT22;20658;45.630;8.886;2023-06-14T05:46:43;18.70;99.90
34406;DHT22;20658;45.630;8.886;2023-06-14T05:49:17;18.80;99.90
34406;DHT22;20658;45.630;8.886;2023-06-14T05:51:50;18.90;99.90
34406;DHT22;20658;45.630;8.886;2023-06-14T05:54:24;19.10;99.90
34406;DHT22;20658;45.630;8.886;2023-06-14T05:56:57;19.30;99.90
34406;DHT22;20658;45.630;8.886;2023-06-14T05:59:33;19.40;99.90
34406;DHT22;20658;45.630;8.886;2023-06-14T06:02:08;19.60;99.90
34406;DHT22;20658;45.630;8.886;2023-06-14T06:04:41;19.70;99.90
34406;DHT22;20658;45.630;8.886;2023-06-14T06:07:15;19.80;99.90
34406;DHT22;20658;45.630;8.886;2023-06-14T06:09:48;19.90;99.90
34406;DHT22;20658;45.630;8.886;2023-06-14T06:12:22;20.00;99.90
34406;DHT22;20658;45.630;8.886;2023-06-14T06:14:55;20.10;99.90
34406;DHT22;20658;45.630;8.886;2023-06-14T06:17:26;20.10;99.90
34406;DHT22;20658;45.630;8.886;2023-06-14T06:19:59;20.10;99.90
34406;DHT22;20658;45.630;8.886;2023-06-14T06:22:33;20.10;99.90
34406;DHT22;20658;45.630;8.886;2023-06-14T06:25:07;20.10;99.90
34406;DHT22;20658;45.630;8.886;2023-06-14T06:27:41;20.10;99.90
34406;DHT22;20658;45.630;8.886;2023-06-14T06:30:15;20.20;99.90
34406;DHT22;20658;45.630;8.886;2023-06-14T06:32:50;20.30;99.90
34406;DHT22;20658;45.630;8.886;2023-06-14T06:35:24;20.40;99.70
34406;DHT22;20658;45.630;8.886;2023-06-14T06:37:58;20.50;99.20
34406;DHT22;20658;45.630;8.886;2023-06-14T06:40:28;20.60;98.70
34406;DHT22;20658;45.630;8.886;2023-06-14T06:43:02;20.70;99.10
34406;DHT22;20658;45.630;8.886;2023-06-14T06:45:41;20.80;98.80
34406;DHT22;20658;45.630;8.886;2023-06-14T06:48:16;20.90;98.50
34406;DHT22;20658;45.630;8.886;2023-06-14T06:50:49;21.00;98.20
34406;DHT22;20658;45.630;8.886;2023-06-14T06:53:23;21.00;97.20
34406;DHT22;20658;45.630;8.886;2023-06-14T06:55:56;21.00;96.20
34406;DHT22;20658;45.630;8.886;2023-06-14T06:58:29;21.10;96.40
34406;DHT22;20658;45.630;8.886;2023-06-14T07:01:03;21.20;96.00
34406;DHT22;20658;45.630;8.886;2023-06-14T07:03:38;21.30;95.20
34406;DHT22;20658;45.630;8.886;2023-06-14T07:06:11;21.50;94.40
34406;DHT22;20658;45.630;8.886;2023-06-14T07:08:45;21.70;94.60
34406;DHT22;20658;45.630;8.886;2023-06-14T07:11:21;21.90;93.50
34406;DHT22;20658;45.630;8.886;2023-06-14T07:13:54;22.30;93.10
34406;DHT22;20658;45.630;8.886;2023-06-14T07:16:28;22.30;89.40
34406;DHT22;20658;45.630;8.886;2023-06-14T07:19:03;22.50;88.20
34406;DHT22;20658;45.630;8.886;2023-06-14T07:21:37;22.60;86.10
34406;DHT22;20658;45.630;8.886;2023-06-14T07:24:10;22.60;87.30
34406;DHT22;20658;45.630;8.886;2023-06-14T07:26:44;22.80;86.50
34406;DHT22;20658;45.630;8.886;2023-06-14T07:29:17;22.80;86.70
34406;DHT22;20658;45.630;8.886;2023-06-14T07:31:51;23.10;85.70
34406;DHT22;20658;45.630;8.886;2023-06-14T07:34:26;23.10;84.20
34406;DHT22;20658;45.630;8.886;2023-06-14T07:36:55;23.20;84.30
34406;DHT22;20658;45.630;8.886;2023-06-14T07:39:28;23.50;83.30
34406;DHT22;20658;45.630;8.886;2023-06-14T07:42:02;23.50;82.10
34406;DHT22;20658;45.630;8.886;2023-06-14T07:44:36;23.80;81.30
34406;DHT22;20658;45.630;8.886;2023-06-14T07:47:05;24.00;80.60
34406;DHT22;20658;45.630;8.886;2023-06-14T07:49:40;24.00;80.30
34406;DHT22;20658;45.630;8.886;2023-06-14T07:52:13;24.10;80.60
34406;DHT22;20658;45.630;8.886;2023-06-14T07:54:47;24.30;79.30
34406;DHT22;20658;45.630;8.886;2023-06-14T07:57:20;24.40;78.90
34406;DHT22;20658;45.630;8.886;2023-06-14T07:59:54;24.60;79.00
34406;DHT22;20658;45.630;8.886;2023-06-14T08:02:37;25.20;77.10
34406;DHT22;20658;45.630;8.886;2023-06-14T08:05:14;25.10;72.30
34406;DHT22;20658;45.630;8.886;2023-06-14T08:07:48;25.10;73.10
34406;DHT22;20658;45.630;8.886;2023-06-14T08:10:22;25.10;72.60
34406;DHT22;20658;45.630;8.886;2023-06-14T08:12:56;25.30;73.50
34406;DHT22;20658;45.630;8.886;2023-06-14T08:15:29;25.70;72.40
34406;DHT22;20658;45.630;8.886;2023-06-14T08:18:03;26.00;72.10
34406;DHT22;20658;45.630;8.886;2023-06-14T08:20:38;26.00;69.90
34406;DHT22;20658;45.630;8.886;2023-06-14T08:23:12;26.10;70.70
34406;DHT22;20658;45.630;8.886;2023-06-14T08:25:45;25.90;69.80
34406;DHT22;20658;45.630;8.886;2023-06-14T08:28:19;25.60;70.30
34406;DHT22;20658;45.630;8.886;2023-06-14T08:30:52;25.80;68.50
34406;DHT22;20658;45.630;8.886;2023-06-14T08:33:26;25.80;68.00
34406;DHT22;20658;45.630;8.886;2023-06-14T08:36:00;25.60;69.30
34406;DHT22;20658;45.630;8.886;2023-06-14T08:38:34;25.80;69.40
34406;DHT22;20658;45.630;8.886;2023-06-14T08:41:08;25.90;68.60
34406;DHT22;20658;45.630;8.886;2023-06-14T08:43:46;26.20;66.80
34406;DHT22;20658;45.630;8.886;2023-06-14T08:46:20;26.40;64.80
34406;DHT22;20658;45.630;8.886;2023-06-14T08:48:55;26.40;65.30
34406;DHT22;20658;45.630;8.886;2023-06-14T08:51:32;26.30;64.60
34406;DHT22;20658;45.630;8.886;2023-06-14T08:54:06;26.30;63.50
34406;DHT22;20658;45.630;8.886;2023-06-14T08:56:40;26.00;64.20
34406;DHT22;20658;45.630;8.886;2023-06-14T08:59:15;26.10;63.70
34406;DHT22;20658;45.630;8.886;2023-06-14T09:01:50;26.50;62.40
34406;DHT22;20658;45.630;8.886;2023-06-14T09:04:24;26.60;61.80
34406;DHT22;20658;45.630;8.886;2023-06-14T09:07:02;26.80;61.70
34406;DHT22;20658;45.630;8.886;2023-06-14T09:09:39;26.80;61.60
34406;DHT22;20658;45.630;8.886;2023-06-14T09:12:13;27.00;62.00
34406;DHT22;20658;45.630;8.886;2023-06-14T09:14:47;27.30;60.80
34406;DHT22;20658;45.630;8.886;2023-06-14T09:17:21;27.70;59.50
34406;DHT22;20658;45.630;8.886;2023-06-14T09:19:56;27.40;56.40
34406;DHT22;20658;45.630;8.886;2023-06-14T09:22:32;27.00;58.70
34406;DHT22;20658;45.630;8.886;2023-06-14T09:25:06;26.80;58.90
34406;DHT22;20658;45.630;8.886;2023-06-14T09:27:40;26.60;59.30
34406;DHT22;20658;45.630;8.886;2023-06-14T09:30:14;26.80;60.60
34406;DHT22;20658;45.630;8.886;2023-06-14T09:32:48;27.20;59.40
34406;DHT22;20658;45.630;8.886;2023-06-14T09:35:22;27.30;56.70
34406;DHT22;20658;45.630;8.886;2023-06-14T09:37:57;27.40;56.80
34406;DHT22;20658;45.630;8.886;2023-06-14T09:40:34;27.70;56.10
34406;DHT22;20658;45.630;8.886;2023-06-14T09:43:09;28.00;56.50
34406;DHT22;20658;45.630;8.886;2023-06-14T09:45:44;27.70;54.90
34406;DHT22;20658;45.630;8.886;2023-06-14T09:48:19;28.10;53.40
34406;DHT22;20658;45.630;8.886;2023-06-14T09:50:55;28.60;52.90
34406;DHT22;20658;45.630;8.886;2023-06-14T09:53:30;28.50;51.60
34406;DHT22;20658;45.630;8.886;2023-06-14T09:56:08;28.10;51.70
34406;DHT22;20658;45.630;8.886;2023-06-14T09:58:43;28.40;51.80
34406;DHT22;20658;45.630;8.886;2023-06-14T10:01:12;28.90;51.40
34406;DHT22;20658;45.630;8.886;2023-06-14T10:03:45;28.80;51.30
34406;DHT22;20658;45.630;8.886;2023-06-14T10:06:21;28.70;51.40
34406;DHT22;20658;45.630;8.886;2023-06-14T10:08:58;28.80;51.50
34406;DHT22;20658;45.630;8.886;2023-06-14T10:11:32;29.00;50.80
34406;DHT22;20658;45.630;8.886;2023-06-14T10:14:06;28.90;49.10
34406;DHT22;20658;45.630;8.886;2023-06-14T10:16:47;28.70;48.00
34406;DHT22;20658;45.630;8.886;2023-06-14T10:19:27;28.80;51.00
34406;DHT22;20658;45.630;8.886;2023-06-14T10:22:11;28.50;48.20
34406;DHT22;20658;45.630;8.886;2023-06-14T10:24:49;28.70;49.30
34406;DHT22;20658;45.630;8.886;2023-06-14T10:27:23;28.90;49.20
34406;DHT22;20658;45.630;8.886;2023-06-14T10:30:03;29.00;48.00
34406;DHT22;20658;45.630;8.886;2023-06-14T10:33:04;29.10;49.10
34406;DHT22;20658;45.630;8.886;2023-06-14T10:35:38;29.30;47.90
34406;DHT22;20658;45.630;8.886;2023-06-14T10:38:12;29.40;47.00
34406;DHT22;20658;45.630;8.886;2023-06-14T10:40:53;29.40;47.40
34406;DHT22;20658;45.630;8.886;2023-06-14T10:43:26;29.30;47.40
34406;DHT22;20658;45.630;8.886;2023-06-14T10:46:20;29.40;47.50
34406;DHT22;20658;45.630;8.886;2023-06-14T10:48:57;29.50;47.20
34406;DHT22;20658;45.630;8.886;2023-06-14T10:51:38;29.40;46.70
34406;DHT22;20658;45.630;8.886;2023-06-14T10:54:20;29.50;46.60
34406;DHT22;20658;45.630;8.886;2023-06-14T10:56:55;28.90;47.40
34406;DHT22;20658;45.630;8.886;2023-06-14T10:59:29;28.80;47.80
34406;DHT22;20658;45.630;8.886;2023-06-14T11:02:18;29.00;47.50
34406;DHT22;20658;45.630;8.886;2023-06-14T11:05:03;28.90;46.10
34406;DHT22;20658;45.630;8.886;2023-06-14T11:07:46;28.60;46.10
34406;DHT22;20658;45.630;8.886;2023-06-14T11:10:35;28.70;47.10
34406;DHT22;20658;45.630;8.886;2023-06-14T11:13:12;28.80;46.20
34406;DHT22;20658;45.630;8.886;2023-06-14T11:15:47;28.60;45.60
34406;DHT22;20658;45.630;8.886;2023-06-14T11:18:24;29.20;46.20
34406;DHT22;20658;45.630;8.886;2023-06-14T11:20:59;29.70;44.80
34406;DHT22;20658;45.630;8.886;2023-06-14T11:23:33;29.80;43.80
34406;DHT22;20658;45.630;8.886;2023-06-14T11:26:06;30.10;45.00
34406;DHT22;20658;45.630;8.886;2023-06-14T11:28:41;30.40;44.70
34406;DHT22;20658;45.630;8.886;2023-06-14T11:31:14;30.70;44.10
34406;DHT22;20658;45.630;8.886;2023-06-14T11:33:49;30.40;43.80
34406;DHT22;20658;45.630;8.886;2023-06-14T11:36:25;29.90;45.40
34406;DHT22;20658;45.630;8.886;2023-06-14T11:39:02;29.30;44.90
34406;DHT22;20658;45.630;8.886;2023-06-14T11:41:40;29.20;45.80
34406;DHT22;20658;45.630;8.886;2023-06-14T11:44:16;29.80;44.10
34406;DHT22;20658;45.630;8.886;2023-06-14T11:46:49;29.90;44.10
34406;DHT22;20658;45.630;8.886;2023-06-14T11:49:24;30.00;44.10
34406;DHT22;20658;45.630;8.886;2023-06-14T11:51:59;29.50;44.70
34406;DHT22;20658;45.630;8.886;2023-06-14T11:54:33;29.00;45.80
34406;DHT22;20658;45.630;8.886;2023-06-14T11:57:08;29.50;44.80
34406;DHT22;20658;45.630;8.886;2023-06-14T11:59:44;30.00;45.10
34406;DHT22;20658;45.630;8.886;2023-06-14T12:02:21;30.40;44.10
34406;DHT22;20658;45.630;8.886;2023-06-14T12:05:04;30.50;42.50
34406;DHT22;20658;45.630;8.886;2023-06-14T12:07:35;30.10;42.90
34406;DHT22;20658;45.630;8.886;2023-06-14T12:10:09;30.00;43.80
34406;DHT22;20658;45.630;8.886;2023-06-14T12:12:44;30.30;44.10
34406;DHT22;20658;45.630;8.886;2023-06-14T12:15:19;30.60;43.20
34406;DHT22;20658;45.630;8.886;2023-06-14T12:17:53;30.60;44.10
34406;DHT22;20658;45.630;8.886;2023-06-14T12:20:29;31.00;43.50
34406;DHT22;20658;45.630;8.886;2023-06-14T12:23:04;31.10;43.20
34406;DHT22;20658;45.630;8.886;2023-06-14T12:25:37;31.10;42.40
34406;DHT22;20658;45.630;8.886;2023-06-14T12:28:12;31.20;42.80
34406;DHT22;20658;45.630;8.886;2023-06-14T12:30:47;30.80;41.90
34406;DHT22;20658;45.630;8.886;2023-06-14T12:33:24;30.80;41.80
34406;DHT22;20658;45.630;8.886;2023-06-14T12:35:58;31.20;42.80
34406;DHT22;20658;45.630;8.886;2023-06-14T12:38:32;30.80;42.00
34406;DHT22;20658;45.630;8.886;2023-06-14T12:41:05;31.00;43.00
34406;DHT22;20658;45.630;8.886;2023-06-14T12:43:34;31.20;42.10
34406;DHT22;20658;45.630;8.886;2023-06-14T12:46:09;31.50;41.90
34406;DHT22;20658;45.630;8.886;2023-06-14T12:48:42;31.20;42.50
34406;DHT22;20658;45.630;8.886;2023-06-14T12:51:16;31.80;42.60
34406;DHT22;20658;45.630;8.886;2023-06-14T12:53:49;32.00;42.50
34406;DHT22;20658;45.630;8.886;2023-06-14T12:56:23;31.80;42.30
34406;DHT22;20658;45.630;8.886;2023-06-14T12:58:57;32.10;42.30
34406;DHT22;20658;45.630;8.886;2023-06-14T13:01:32;32.50;41.30
34406;DHT22;20658;45.630;8.886;2023-06-14T13:04:06;32.90;40.80
34406;DHT22;20658;45.630;8.886;2023-06-14T13:06:39;33.10;41.10
34406;DHT22;20658;45.630;8.886;2023-06-14T13:09:13;33.10;41.00
34406;DHT22;20658;45.630;8.886;2023-06-14T13:11:47;33.10;40.90
34406;DHT22;20658;45.630;8.886;2023-06-14T13:14:20;33.60;39.90
34406;DHT22;20658;45.630;8.886;2023-06-14T13:16:51;33.40;39.20
34406;DHT22;20658;45.630;8.886;2023-06-14T13:19:24;32.90;39.50
34406;DHT22;20658;45.630;8.886;2023-06-14T13:21:58;33.30;41.20
34406;DHT22;20658;45.630;8.886;2023-06-14T13:24:37;33.30;40.50
34406;DHT22;20658;45.630;8.886;2023-06-14T13:27:10;32.10;41.50
34406;DHT22;20658;45.630;8.886;2023-06-14T13:29:41;31.30;43.10
34406;DHT22;20658;45.630;8.886;2023-06-14T13:32:16;31.10;43.40
34406;DHT22;20658;45.630;8.886;2023-06-14T13:34:49;31.60;43.20
34406;DHT22;20658;45.630;8.886;2023-06-14T13:37:23;31.60;42.60
34406;DHT22;20658;45.630;8.886;2023-06-14T13:39:57;31.50;43.50
34406;DHT22;20658;45.630;8.886;2023-06-14T13:42:30;31.60;42.90
34406;DHT22;20658;45.630;8.886;2023-06-14T13:44:59;32.00;43.50
34406;DHT22;20658;45.630;8.886;2023-06-14T13:47:34;32.60;41.80
34406;DHT22;20658;45.630;8.886;2023-06-14T13:50:08;32.30;41.60
34406;DHT22;20658;45.630;8.886;2023-06-14T13:52:42;32.40;41.40
34406;DHT22;20658;45.630;8.886;2023-06-14T13:55:15;32.40;41.60
34406;DHT22;20658;45.630;8.886;2023-06-14T13:57:49;32.60;41.30
34406;DHT22;20658;45.630;8.886;2023-06-14T14:00:22;32.50;41.50
34406;DHT22;20658;45.630;8.886;2023-06-14T14:02:58;32.50;41.10
34406;DHT22;20658;45.630;8.886;2023-06-14T14:05:32;32.90;41.20
34406;DHT22;20658;45.630;8.886;2023-06-14T14:08:05;32.70;41.50
34406;DHT22;20658;45.630;8.886;2023-06-14T14:10:39;32.70;40.70
34406;DHT22;20658;45.630;8.886;2023-06-14T14:13:13;32.90;40.50
34406;DHT22;20658;45.630;8.886;2023-06-14T14:15:47;32.70;41.00
34406;DHT22;20658;45.630;8.886;2023-06-14T14:18:22;32.80;40.10
34406;DHT22;20658;45.630;8.886;2023-06-14T14:20:55;33.30;40.70
34406;DHT22;20658;45.630;8.886;2023-06-14T14:23:29;33.20;40.60
34406;DHT22;20658;45.630;8.886;2023-06-14T14:26:02;33.50;40.80
34406;DHT22;20658;45.630;8.886;2023-06-14T14:28:36;33.70;40.30
34406;DHT22;20658;45.630;8.886;2023-06-14T14:31:10;33.80;39.70
34406;DHT22;20658;45.630;8.886;2023-06-14T14:33:45;33.90;39.90
34406;DHT22;20658;45.630;8.886;2023-06-14T14:36:18;33.30;40.90
34406;DHT22;20658;45.630;8.886;2023-06-14T14:38:52;33.10;42.00
34406;DHT22;20658;45.630;8.886;2023-06-14T14:41:25;32.90;41.10
34406;DHT22;20658;45.630;8.886;2023-06-14T14:44:00;32.90;40.30
34406;DHT22;20658;45.630;8.886;2023-06-14T14:46:34;33.00;41.40
34406;DHT22;20658;45.630;8.886;2023-06-14T14:49:09;32.90;39.70
34406;DHT22;20658;45.630;8.886;2023-06-14T14:51:42;33.20;41.20
34406;DHT22;20658;45.630;8.886;2023-06-14T14:54:16;33.30;39.80
34406;DHT22;20658;45.630;8.886;2023-06-14T14:56:49;32.60;40.50
34406;DHT22;20658;45.630;8.886;2023-06-14T14:59:23;32.20;42.30
34406;DHT22;20658;45.630;8.886;2023-06-14T15:01:56;32.00;42.00
34406;DHT22;20658;45.630;8.886;2023-06-14T15:04:31;31.80;42.20
34406;DHT22;20658;45.630;8.886;2023-06-14T15:07:05;31.50;42.70
34406;DHT22;20658;45.630;8.886;2023-06-14T15:09:38;31.30;43.60
34406;DHT22;20658;45.630;8.886;2023-06-14T15:12:12;31.10;44.00
34406;DHT22;20658;45.630;8.886;2023-06-14T15:14:45;31.00;44.50
34406;DHT22;20658;45.630;8.886;2023-06-14T15:17:19;30.70;44.30
34406;DHT22;20658;45.630;8.886;2023-06-14T15:19:55;30.80;45.00
34406;DHT22;20658;45.630;8.886;2023-06-14T15:22:28;30.80;44.70
34406;DHT22;20658;45.630;8.886;2023-06-14T15:24:57;30.70;44.60
34406;DHT22;20658;45.630;8.886;2023-06-14T15:27:30;30.40;45.00
34406;DHT22;20658;45.630;8.886;2023-06-14T15:30:05;30.30;45.70
34406;DHT22;20658;45.630;8.886;2023-06-14T15:32:39;29.80;45.40
34406;DHT22;20658;45.630;8.886;2023-06-14T15:35:16;29.20;47.20
34406;DHT22;20658;45.630;8.886;2023-06-14T15:37:49;29.10;47.80
34406;DHT22;20658;45.630;8.886;2023-06-14T15:40:23;28.90;46.80
34406;DHT22;20658;45.630;8.886;2023-06-14T15:42:57;28.80;47.40
34406;DHT22;20658;45.630;8.886;2023-06-14T15:45:31;28.60;47.90
34406;DHT22;20658;45.630;8.886;2023-06-14T15:48:05;29.60;46.90
34406;DHT22;20658;45.630;8.886;2023-06-14T15:50:42;30.60;44.40
34406;DHT22;20658;45.630;8.886;2023-06-14T15:53:15;31.20;43.70
34406;DHT22;20658;45.630;8.886;2023-06-14T15:55:48;31.50;42.40
34406;DHT22;20658;45.630;8.886;2023-06-14T15:58:22;31.50;42.20
34406;DHT22;20658;45.630;8.886;2023-06-14T16:00:55;31.80;41.30
34406;DHT22;20658;45.630;8.886;2023-06-14T16:03:29;31.20;42.20
34406;DHT22;20658;45.630;8.886;2023-06-14T16:06:04;30.10;44.50
34406;DHT22;20658;45.630;8.886;2023-06-14T16:08:32;30.60;44.50
34406;DHT22;20658;45.630;8.886;2023-06-14T16:11:06;31.50;43.40
34406;DHT22;20658;45.630;8.886;2023-06-14T16:13:40;32.10;42.60
34406;DHT22;20658;45.630;8.886;2023-06-14T16:16:14;31.80;42.90